FW5676 Blagoevgrad BG current weather conditions

sailwx.info

Wind from 090

Air temperature 10.0° C
Dewpoint 4.8° C

Last reported at 2019-Dec-14 15:04 UTC.
Time now 2019-Dec-14 15:41 UTC

Location: N 42°01' E 023°06'.
View on Google Maps.

See reports from other nearby stations

  
Tides and Currents Weather Stations Pressure Air Temp Water Temp Dewpoint Dewpoint Depression Visibility Wind Speed Wind Dir Waves Ship Positions
date/time (UTC)wind fromknots sea level pressurealtimeterstation pressurevisibilityair tempwater tempwave heightnotes
2019-Dec-14 15:04 090 10.0
2019-Dec-14 14:54 118 10.0
2019-Dec-14 14:49 018 1 gusting 2 10.0
2019-Dec-14 14:34 317 1 gusting 2 10.0
2019-Dec-14 14:29 235 1 gusting 2 10.0
2019-Dec-14 14:24 022 2 gusting 6 10.0
2019-Dec-14 14:19 024 3 gusting 4 10.0
2019-Dec-14 14:14 041 1 gusting 6 10.0
2019-Dec-14 14:04 332 3 gusting 10 10.0
2019-Dec-14 13:54 079 10.0
2019-Dec-14 13:49 351 6 gusting 11 10.0
2019-Dec-14 13:39 018 2 gusting 6 10.0
2019-Dec-14 13:34 021 2 gusting 6 10.0
2019-Dec-14 13:29 351 3 gusting 7 10.0
2019-Dec-14 13:24 026 5 gusting 8 10.0
2019-Dec-14 13:19 357 10 gusting 13 10.0
2019-Dec-14 13:14 001 6 gusting 13 10.0
2019-Dec-14 13:09 357 8 gusting 15 10.0
2019-Dec-14 13:04 353 9 gusting 13 10.0
2019-Dec-14 12:59 346 4 gusting 13 10.0
2019-Dec-14 12:54 004 11 gusting 14 10.0
2019-Dec-14 12:49 346 8 gusting 13 10.0
2019-Dec-14 12:39 357 3 gusting 13 10.0
2019-Dec-14 12:34 331 6 gusting 12 10.0
2019-Dec-14 12:24 356 6 gusting 11 10.0
2019-Dec-14 12:19 009 6 gusting 13 10.0
2019-Dec-14 12:14 350 10 gusting 13 10.0
2019-Dec-14 12:09 345 6 gusting 12 10.0
2019-Dec-14 12:04 011 10 gusting 14 10.0
2019-Dec-14 11:59 354 12 gusting 14 10.0
2019-Dec-14 11:49 001 7 gusting 13 10.0
2019-Dec-14 11:44 353 12 gusting 17 10.0
2019-Dec-14 11:39 352 8 gusting 17 10.0
2019-Dec-14 11:34 003 10 gusting 15 10.0
2019-Dec-14 11:29 011 6 gusting 13 10.0
2019-Dec-14 11:24 010 8 gusting 12 10.0
2019-Dec-14 11:19 358 9 gusting 13 10.0
2019-Dec-14 11:14 327 3 gusting 6 10.0
2019-Dec-14 11:09 336 3 gusting 8 9.4
2019-Dec-14 11:04 9.4
2019-Dec-14 10:34 353 11 gusting 14 9.4
2019-Dec-14 10:29 339 7 gusting 13 9.4
2019-Dec-14 10:24 011 6 gusting 8 9.4
2019-Dec-14 10:19 351 0 gusting 8 9.4
2019-Dec-14 10:09 006 8 gusting 10 9.4
2019-Dec-14 10:04 018 6 gusting 8 8.9
2019-Dec-14 09:59 8.9
2019-Dec-14 09:49 009 3 gusting 6 8.3
2019-Dec-14 09:44 341 5 gusting 7 8.3
2019-Dec-14 09:39 082 2 gusting 8 8.3
2019-Dec-14 09:34 334 2 gusting 6 8.3
2019-Dec-14 09:29 003 6 gusting 10 8.3
2019-Dec-14 09:19 004 7 gusting 11 7.8
2019-Dec-14 09:04 349 2 gusting 6 7.8
2019-Dec-14 08:54 346 8 gusting 12 7.8
2019-Dec-14 08:29 018 6 gusting 10 7.2
2019-Dec-14 08:19 011 1 gusting 8 7.2
2019-Dec-14 08:14 356 8 gusting 10 7.2
2019-Dec-14 08:09 353 6 gusting 10 7.8
2019-Dec-14 08:04 316 4 gusting 10 7.8
2019-Dec-14 07:49 022 2 gusting 5 8.3
2019-Dec-14 07:44 350 3 gusting 6 8.3
2019-Dec-14 07:34 333 6 gusting 8 8.3
2019-Dec-14 07:29 011 2 gusting 4 8.3
2019-Dec-14 07:24 136 8.3
2019-Dec-14 07:19 347 0 gusting 5 8.3
2019-Dec-14 07:14 259 8.9
2019-Dec-14 07:09 022 1 gusting 10 8.9
2019-Dec-14 07:04 298 5 gusting 10 10.0
2019-Dec-14 06:59 343 2 gusting 8 10.6
2019-Dec-14 06:49 200 4 gusting 10 10.6
2019-Dec-14 06:44 174 8 gusting 12 10.6
2019-Dec-14 06:39 197 8 gusting 13 10.6
2019-Dec-14 06:34 156 6 gusting 13 10.6
2019-Dec-14 06:29 163 7 gusting 17 10.6
2019-Dec-14 06:19 185 8 gusting 19 10.6
2019-Dec-14 06:14 182 11 gusting 17 10.6
2019-Dec-14 06:09 176 12 gusting 24 10.6
2019-Dec-14 05:59 152 5 gusting 13 10.6
2019-Dec-14 05:54 156 6 gusting 14 10.6
2019-Dec-14 05:49 154 9 gusting 17 10.6
2019-Dec-14 05:44 155 8 gusting 14 10.6
2019-Dec-14 05:34 116 2 gusting 10 10.0
2019-Dec-14 05:29 199 2 gusting 11 10.0
2019-Dec-14 05:24 104 4 gusting 8 10.0
2019-Dec-14 05:09 175 1 gusting 8 10.0
2019-Dec-14 05:04 133 0 gusting 5 10.0
2019-Dec-14 04:59 078 10.6
2019-Dec-14 04:49 133 3 gusting 11 10.6
2019-Dec-14 04:44 177 3 gusting 12 10.6
2019-Dec-14 04:39 114 6 gusting 13 10.6
2019-Dec-14 04:29 145 7 gusting 13 10.0
2019-Dec-14 04:24 151 2 gusting 7 10.0
2019-Dec-14 04:19 145 4 gusting 10 9.4
2019-Dec-14 04:14 078 4 gusting 8 10.0
2019-Dec-14 04:09 168 2 gusting 10 10.0
2019-Dec-14 04:04 048 4 gusting 13 10.0
2019-Dec-14 03:59 145 5 gusting 10 9.4
2019-Dec-14 03:54 143 6 gusting 12 9.4
2019-Dec-14 03:49 167 1 gusting 5 8.9
2019-Dec-14 03:44 060 1 gusting 5 8.3
2019-Dec-14 03:14 126 5 gusting 11 7.2
2019-Dec-14 03:04 031 2 gusting 4 6.7
2019-Dec-14 02:49 076 0 gusting 10 7.8
2019-Dec-14 02:44 157 2 gusting 7 7.2
2019-Dec-14 02:39 120 4 gusting 12 6.1
2019-Dec-14 02:29 050 2 gusting 8 5.6
2019-Dec-14 02:24 045 7 gusting 8 5.0
2019-Dec-14 02:19 035 4 gusting 6 5.0
2019-Dec-14 02:14 043 6 gusting 7 5.6
2019-Dec-14 02:09 032 1 gusting 6 5.6
2019-Dec-14 02:04 043 6 gusting 7 5.6
2019-Dec-14 01:59 030 5 gusting 8 5.6
2019-Dec-14 01:54 033 2 gusting 5 5.6
2019-Dec-14 01:44 039 1 gusting 4 5.6
2019-Dec-14 01:29 047 4 gusting 7 7.2
2019-Dec-14 01:24 086 1 gusting 13 8.3
2019-Dec-14 01:19 327 7 gusting 14 8.3
2019-Dec-14 01:14 184 11 gusting 18 8.3
2019-Dec-14 01:04 153 6 gusting 12 8.3
2019-Dec-14 00:59 255 4 gusting 11 8.3
2019-Dec-14 00:54 170 6 gusting 13 8.3
2019-Dec-14 00:49 115 6 gusting 15 8.3
2019-Dec-14 00:44 208 6 gusting 17 8.3
2019-Dec-14 00:39 184 13 gusting 18 8.3
2019-Dec-14 00:34 140 8 gusting 13 8.3
2019-Dec-14 00:29 178 10 gusting 18 8.3
2019-Dec-14 00:24 167 8 gusting 15 8.3
2019-Dec-14 00:19 144 6 gusting 17 8.3
2019-Dec-13 23:59 094 2 gusting 5 6.1
2019-Dec-13 23:44 155 0 gusting 2 6.1
2019-Dec-13 23:34 045 7.8
2019-Dec-13 23:29 112 1 gusting 13 8.3
2019-Dec-13 23:24 189 11 gusting 19 8.3
2019-Dec-13 23:19 119 9 gusting 18 8.3
2019-Dec-13 23:14 178 6 gusting 19 8.3
2019-Dec-13 23:09 156 5 gusting 11 7.2
2019-Dec-13 23:04 157 6 gusting 14 7.2
2019-Dec-13 22:59 136 4 gusting 8 6.1
2019-Dec-13 22:54 062 2 gusting 6 5.6
2019-Dec-13 22:49 046 2 gusting 6 5.6
2019-Dec-13 22:44 051 1 gusting 6 5.6
2019-Dec-13 22:39 043 3 gusting 6 5.0
2019-Dec-13 22:29 048 5 gusting 6 5.6
2019-Dec-13 22:19 054 4 gusting 6 6.7
2019-Dec-13 22:14 063 2 gusting 7 8.3
2019-Dec-13 22:09 140 5 gusting 13 8.3
2019-Dec-13 21:59 240 6 gusting 13 8.3
2019-Dec-13 21:49 240 7 gusting 17 8.3
2019-Dec-13 21:44 078 7 gusting 17 8.3
2019-Dec-13 21:34 157 8 gusting 17 8.3
2019-Dec-13 21:29 153 8 gusting 17 8.3
2019-Dec-13 21:24 216 8 gusting 17 8.3
2019-Dec-13 21:14 186 10 gusting 17 8.3
2019-Dec-13 21:04 155 8 gusting 14 8.3
2019-Dec-13 20:59 120 5 gusting 15 8.3
2019-Dec-13 20:54 192 6 gusting 18 8.3
2019-Dec-13 20:49 179 6 gusting 15 8.3
2019-Dec-13 20:45 170 5 gusting 12 8.3
2019-Dec-13 20:39 137 10 gusting 15 8.3
2019-Dec-13 20:34 280 7 gusting 15 8.3
2019-Dec-13 20:29 106 8 gusting 17 8.3
2019-Dec-13 20:24 118 2 gusting 14 8.3
2019-Dec-13 20:14 114 6 gusting 13 8.3
2019-Dec-13 20:09 126 6 gusting 14 8.3
2019-Dec-13 20:04 242 1 gusting 11 7.8
2019-Dec-13 19:59 129 5 gusting 10 7.8
2019-Dec-13 19:54 110 2 gusting 11 7.2
2019-Dec-13 19:39 032 2 gusting 5 7.2
2019-Dec-13 19:29 042 0 gusting 1 7.2
2019-Dec-13 19:24 030 1 gusting 4 7.8
2019-Dec-13 18:59 101 1 gusting 2 7.8
2019-Dec-13 18:54 056 1 gusting 6 8.3
2019-Dec-13 18:39 153 3 gusting 8 8.3
2019-Dec-13 18:29 108 6 gusting 11 8.9
2019-Dec-13 18:04 126 0 gusting 4 6.7
2019-Dec-13 17:59 058 0 gusting 4 6.7
2019-Dec-13 17:54 046 1 gusting 4 7.2
2019-Dec-13 17:44 022 7.8
2019-Dec-13 17:34 123 0 gusting 2 7.8
2019-Dec-13 17:29 124 1 gusting 4 7.2
2019-Dec-13 17:24 124 0 gusting 1 7.2
2019-Dec-13 17:14 045 2 gusting 6 6.7
2019-Dec-13 17:04 045 4 gusting 5 7.2
2019-Dec-13 16:59 035 1 gusting 4 7.8
2019-Dec-13 16:54 346 0 gusting 4 8.3
2019-Dec-13 16:39 094 2 gusting 6 8.9
2019-Dec-13 16:34 156 2 gusting 5 8.3
2019-Dec-13 16:29 104 1 gusting 5 8.3
2019-Dec-13 16:24 075 1 gusting 6 8.3
2019-Dec-13 16:19 110 2 gusting 6 8.3
2019-Dec-13 16:14 085 8.9
2019-Dec-13 16:09 065 0 gusting 6 8.9
2019-Dec-13 16:04 036 0 gusting 4 8.9
2019-Dec-13 15:44 179 4 gusting 13 8.9
2019-Dec-13 15:39 145 6 gusting 13 8.9
2019-Dec-13 15:29 123 5 gusting 14 8.9
2019-Dec-13 15:24 102 3 gusting 8 9.4
2019-Dec-13 15:19 186 3 gusting 12 9.4
2019-Dec-13 15:14 211 4 gusting 10 9.4
2019-Dec-13 15:09 174 8 gusting 13 9.4
2019-Dec-13 15:04 173 11 gusting 13 9.4
2019-Dec-13 14:59 146 6 gusting 13 9.4
2019-Dec-13 14:54 182 12 gusting 15 9.4
2019-Dec-13 14:44 174 7 gusting 18 9.4
2019-Dec-13 14:24 180 11 gusting 17 9.4
2019-Dec-13 14:19 154 11 gusting 15 9.4
2019-Dec-13 14:14 214 8 gusting 17 9.4
2019-Dec-13 14:04 186 7 gusting 17 9.4
2019-Dec-13 13:54 198 5 gusting 14 9.4
2019-Dec-13 13:30 168 8 gusting 14 9.4
2019-Dec-13 13:19 093 8 gusting 17 9.4
2019-Dec-13 13:14 274 5 gusting 12 9.4
2019-Dec-13 13:04 165 7 gusting 14 9.4
2019-Dec-13 12:59 143 9 gusting 17 9.4
2019-Dec-13 12:54 304 8 gusting 14 9.4
2019-Dec-13 12:50 158 6 gusting 11 9.4
2019-Dec-13 12:34 213 6 gusting 13 9.4
2019-Dec-13 12:30 161 4 gusting 17 9.4
2019-Dec-13 12:24 131 5 gusting 19 9.4
2019-Dec-13 12:19 176 15 gusting 19 9.4
2019-Dec-13 12:14 177 6 gusting 14 9.4
2019-Dec-13 12:00 120 6 gusting 13 10.0
2019-Dec-13 11:54 120 7 gusting 14 9.4
2019-Dec-13 11:44 226 7 gusting 18 9.4
2019-Dec-13 11:34 186 8 gusting 15 10.0
2019-Dec-13 11:30 182 8 gusting 17 10.0
2019-Dec-13 11:14 128 8 gusting 17 10.0
2019-Dec-13 11:10 181 10 gusting 19 10.0
2019-Dec-13 11:04 220 11 gusting 18 10.0
2019-Dec-13 11:00 146 6 gusting 17 10.0
2019-Dec-13 10:50 177 8 gusting 18 10.6
2019-Dec-13 10:45 109 13 gusting 20 10.0
2019-Dec-13 10:39 133 11 gusting 19 10.0
2019-Dec-13 10:34 179 6 gusting 13 10.0
2019-Dec-13 10:30 165 12 gusting 20 10.0
2019-Dec-13 10:20 110 10 gusting 15 10.0
2019-Dec-13 10:14 268 7 gusting 14 10.0
2019-Dec-13 10:04 151 8 gusting 14 10.0
2019-Dec-13 09:54 185 15 gusting 20 9.4
2019-Dec-13 09:50 130 12 gusting 19 10.0
2019-Dec-13 09:35 174 6 gusting 12 9.4
2019-Dec-13 09:29 174 6 gusting 13 9.4
2019-Dec-13 09:15 167 6 gusting 13 9.4
2019-Dec-13 09:10 197 7 gusting 15 9.4
2019-Dec-13 09:04 174 5 gusting 13 9.4
2019-Dec-13 09:00 184 6 gusting 15 9.4
2019-Dec-13 08:49 142 5 gusting 12 9.4
2019-Dec-13 08:40 171 7 gusting 13 8.9
2019-Dec-13 08:35 236 1 gusting 5 8.3
2019-Dec-13 08:29 219 8.3
2019-Dec-13 08:20 218 0 gusting 2 8.9
2019-Dec-13 08:10 219 0 gusting 2 8.9
2019-Dec-13 08:05 300 8.3
2019-Dec-13 07:59 302 0 gusting 0 7.8
2019-Dec-13 07:45 022 6.7
2019-Dec-13 07:40 090 6.7
2019-Dec-13 07:34 089 6.1
2019-Dec-13 07:30 062 6.1
2019-Dec-13 07:15 045 6.1
2019-Dec-13 07:10 068 5.6
2019-Dec-13 07:00 178 6.1
2019-Dec-13 06:44 301 5.6
2019-Dec-13 06:30 052 1 gusting 2 5.6
2019-Dec-13 06:24 063 0 gusting 5 5.6
2019-Dec-13 06:10 037 4 gusting 6 5.6
2019-Dec-13 06:05 045 4 gusting 6 5.6
2019-Dec-13 06:00 054 1 gusting 2 5.6
2019-Dec-13 05:55 048 0 gusting 2 5.6
2019-Dec-13 05:50 041 2 gusting 2 5.6
2019-Dec-13 05:45 021 0 gusting 1 5.6
2019-Dec-13 05:39 058 5.6
2019-Dec-13 05:35 233 5.6
2019-Dec-13 05:20 026 5 gusting 6 5.6
2019-Dec-13 05:14 044 5 gusting 8 5.6
2019-Dec-13 05:10 043 6 gusting 8 5.6
2019-Dec-13 04:59 049 4 gusting 6 5.0
2019-Dec-13 04:54 045 4 gusting 6 5.0
2019-Dec-13 04:50 045 3 gusting 5 5.0
2019-Dec-13 04:40 045 3 gusting 5 4.4
2019-Dec-13 04:35 040 4.4
2019-Dec-13 04:30 040 4.4
2019-Dec-13 04:20 071 4.4
2019-Dec-13 04:15 048 0 gusting 1 4.4
2019-Dec-13 04:10 080 4.4
2019-Dec-13 04:04 022 4.4
2019-Dec-13 04:00 016 0 gusting 1 4.4
2019-Dec-13 03:54 055 1 gusting 2 4.4
2019-Dec-13 03:50 028 4.4
2019-Dec-13 03:45 045 0 gusting 0 4.4
2019-Dec-13 03:40 063 0 gusting 0 5.0
2019-Dec-13 03:35 098 5.0
2019-Dec-13 03:24 124 5.0
2019-Dec-13 03:20 197 0 gusting 2 5.0
2019-Dec-13 03:15 205 0 gusting 2 5.0
2019-Dec-13 03:10 213 0 gusting 2 5.0
2019-Dec-13 03:00 045 5.0
2019-Dec-13 02:55 045 0 gusting 1 5.6
2019-Dec-13 02:50 022 5.6
2019-Dec-13 02:45 045 5.6
2019-Dec-13 02:40 024 5.6
2019-Dec-13 02:35 022 5.6
2019-Dec-13 02:30 144 5.6
2019-Dec-13 02:15 023 0 gusting 4 5.6
2019-Dec-13 02:09 045 2 gusting 6 5.6
2019-Dec-13 02:00 053 3 gusting 6 5.0
2019-Dec-13 01:45 044 4 gusting 6 5.0
2019-Dec-13 01:30 049 2 gusting 5 5.0
2019-Dec-13 01:25 045 4 gusting 4 5.0
2019-Dec-13 01:10 156 5.0
2019-Dec-13 01:05 051 5.0
2019-Dec-13 00:40 152 5.0
2019-Dec-13 00:35 092 5.0
2019-Dec-13 00:30 105 5.0
2019-Dec-13 00:25 089 5.0
2019-Dec-13 00:15 045 4 gusting 5 5.0
2019-Dec-13 00:10 045 1 gusting 2 5.0
2019-Dec-12 23:55 042 3 gusting 4 5.0
2019-Dec-12 23:45 025 5.0
2019-Dec-12 23:30 048 1 gusting 4 5.0
2019-Dec-12 23:20 043 2 gusting 4 5.6
2019-Dec-12 23:15 051 2 gusting 4 5.6
2019-Dec-12 23:10 040 5.6
2019-Dec-12 23:00 045 1 gusting 2 5.6
2019-Dec-12 22:55 028 5.6
2019-Dec-12 22:50 031 5.6
2019-Dec-12 22:45 166 5.6
2019-Dec-12 22:35 044 5.6
2019-Dec-12 22:30 099 5.6
2019-Dec-12 22:25 084 5.6
2019-Dec-12 22:20 5.6
2019-Dec-12 22:15 088 5.6
2019-Dec-12 22:00 5.6
2019-Dec-12 21:50 276 5.6
2019-Dec-12 21:45 325 5.6
2019-Dec-12 21:40 012 5.6
2019-Dec-12 21:30 057 0 gusting 1 5.6
2019-Dec-12 21:25 017 5.6
2019-Dec-12 21:10 009 6.1
2019-Dec-12 21:05 053 6.1
2019-Dec-12 21:00 006 6.1
2019-Dec-12 20:55 012 5.6
2019-Dec-12 20:45 280 0 gusting 1 6.1
2019-Dec-12 20:40 253 0 gusting 2 6.1
2019-Dec-12 20:35 315 6.1
2019-Dec-12 20:30 024 0 gusting 1 6.1
2019-Dec-12 20:25 041 2 gusting 4 6.1
2019-Dec-12 20:15 054 4 gusting 5 6.1
2019-Dec-12 20:05 033 4 gusting 6 6.1
2019-Dec-12 20:00 050 3 gusting 5 6.1
2019-Dec-12 19:55 022 2 gusting 4 6.1
2019-Dec-12 19:45 036 2 gusting 6 6.1
2019-Dec-12 19:40 036 1 gusting 2 6.1
2019-Dec-12 19:20 090 0 gusting 1 6.1
2019-Dec-12 19:15 116 6.1
2019-Dec-12 19:10 049 6.1
2019-Dec-12 19:05 235 6.1
2019-Dec-12 19:00 150 6.1
2019-Dec-12 18:55 178 6.1
2019-Dec-12 18:50 188 6.1
2019-Dec-12 18:40 353 6.1
2019-Dec-12 18:35 257 6.1
2019-Dec-12 18:30 206 6.1
2019-Dec-12 18:25 343 6.1
2019-Dec-12 18:20 067 6.1
2019-Dec-12 18:10 043 0 gusting 2 6.1
2019-Dec-12 18:05 041 1 gusting 2 6.1
2019-Dec-12 17:40 202 6.1
2019-Dec-12 17:35 188 6.1
2019-Dec-12 17:30 194 6.1
2019-Dec-12 17:25 200 6.1
2019-Dec-12 17:20 189 6.1
2019-Dec-12 17:10 186 6.1
2019-Dec-12 17:05 090 6.1
2019-Dec-12 16:45 050 6.1
2019-Dec-12 16:40 026 6.1
2019-Dec-12 16:35 028 0 gusting 1 6.1
2019-Dec-12 16:25 031 6.1
2019-Dec-12 16:20 049 6.7
2019-Dec-12 16:10 045 6.7
2019-Dec-12 16:05 038 1 gusting 1 6.7
2019-Dec-12 16:00 041 1 gusting 2 6.7
2019-Dec-12 15:45 021 6.7
2019-Dec-12 15:35 086 6.7
2019-Dec-12 15:25 067 7.2
2019-Dec-12 15:20 093 7.2
2019-Dec-12 15:15 115 7.2